Time;durP1;ratioP1;P1;durP2;ratioP2;P2;SDS_P1;SDS_P2;PMS_P1;PMS_P2;Temp;Humidity;BMP_temperature;BMP_pressure;BME280_temperature;BME280_humidity;BME280_pressure;Samples;Min_cycle;Max_cycle;Signal;HPM_P1;HPM_P2
2022/11/17 00:00:02;;;;;;;;;;;8.30;99.90;;;;;;4991568;28;20286;-68
2022/11/17 00:02:27;;;;;;;;;;;8.20;99.90;;;;;;4990971;28;19921;-70
2022/11/17 00:04:53;;;;;;;;;;;8.70;99.90;;;;;;4991397;28;20442;-69
2022/11/17 00:07:18;;;;;;;;;;;8.20;99.90;;;;;;4993316;28;20333;-69
2022/11/17 00:09:44;;;;;;;;;;;8.50;99.90;;;;;;4995209;28;19936;-68
2022/11/17 00:14:56;;;;;;;;;;;8.20;99.90;;;;;;4988940;28;20012;-69
2022/11/17 00:17:22;;;;;;;;;;;8.20;99.90;;;;;;4991973;28;20012;-69
2022/11/17 00:22:31;;;;;;;;;;;8.40;99.90;;;;;;4989258;28;20075;-69
2022/11/17 00:24:57;;;;;;;;;;;8.10;99.90;;;;;;5015144;28;20395;-69
2022/11/17 00:27:23;;;;;;;;;;;8.20;99.90;;;;;;4991172;28;19948;-69
2022/11/17 00:29:48;;;;;;;;;;;8.20;99.90;;;;;;4991731;28;19922;-68
2022/11/17 00:34:58;;;;;;;;;;;8.20;99.90;;;;;;4989055;28;20009;-67
2022/11/17 00:37:24;;;;;;;;;;;8.20;99.90;;;;;;4991731;28;20041;-68
2022/11/17 00:39:50;;;;;;;;;;;8.20;99.90;;;;;;4990273;28;19921;-67
2022/11/17 00:42:18;;;;;;;;;;;8.50;99.90;;;;;;4994708;28;20381;-68
2022/11/17 00:44:50;;;;;;;;;;;8.20;99.90;;;;;;4987110;28;20747;-68
2022/11/17 00:47:15;;;;;;;;;;;8.20;99.90;;;;;;4990304;28;19918;-68
2022/11/17 00:49:41;;;;;;;;;;;8.60;99.90;;;;;;4990584;28;19929;-68
2022/11/17 00:52:06;;;;;;;;;;;8.20;99.90;;;;;;4991454;28;20397;-68
2022/11/17 00:54:32;;;;;;;;;;;8.10;99.90;;;;;;4991218;28;19928;-68
2022/11/17 00:56:57;;;;;;;;;;;8.20;99.90;;;;;;4990710;28;20018;-68
2022/11/17 00:59:23;;;;;;;;;;;8.20;99.90;;;;;;4991568;28;19922;-68
2022/11/17 01:01:48;;;;;;;;;;;8.20;99.90;;;;;;4991148;28;19929;-68
2022/11/17 01:04:14;;;;;;;;;;;8.30;99.90;;;;;;4993602;28;20373;-69
2022/11/17 01:06:41;;;;;;;;;;;8.30;99.90;;;;;;4989574;28;19947;-69
2022/11/17 01:09:27;;;;;;;;;;;8.30;99.90;;;;;;4991224;28;19928;-68
2022/11/17 01:11:52;;;;;;;;;;;8.30;99.90;;;;;;4991133;28;19969;-68
2022/11/17 01:14:25;;;;;;;;;;;8.30;99.90;;;;;;4991041;28;19964;-68
2022/11/17 01:16:51;;;;;;;;;;;8.30;99.90;;;;;;4989813;28;20033;-68
2022/11/17 01:19:20;;;;;;;;;;;8.30;99.90;;;;;;4990250;28;19930;-68
2022/11/17 01:21:46;;;;;;;;;;;8.30;99.90;;;;;;4992438;28;20316;-68
2022/11/17 01:24:12;;;;;;;;;;;8.30;99.90;;;;;;4989441;28;19968;-68
2022/11/17 01:26:38;;;;;;;;;;;8.20;99.90;;;;;;4990680;28;20441;-69
2022/11/17 01:29:05;;;;;;;;;;;8.30;99.90;;;;;;4991080;28;19959;-67
2022/11/17 01:31:32;;;;;;;;;;;8.30;99.90;;;;;;4989238;28;19936;-68
2022/11/17 01:33:57;;;;;;;;;;;8.30;99.90;;;;;;4990917;28;19973;-68
2022/11/17 01:36:24;;;;;;;;;;;8.30;99.90;;;;;;4991074;28;19968;-69
2022/11/17 01:38:50;;;;;;;;;;;8.30;99.90;;;;;;4989797;28;20266;-68
2022/11/17 01:41:17;;;;;;;;;;;8.30;99.90;;;;;;4991220;28;19929;-68
2022/11/17 01:43:42;;;;;;;;;;;8.30;99.90;;;;;;4990844;28;19965;-69
2022/11/17 01:46:23;;;;;;;;;;;8.30;99.90;;;;;;4990138;28;20371;-68
2022/11/17 01:48:50;;;;;;;;;;;8.30;99.90;;;;;;4990398;28;19928;-68
2022/11/17 01:51:16;;;;;;;;;;;8.30;99.90;;;;;;4991025;28;19926;-68
2022/11/17 01:53:43;;;;;;;;;;;8.30;99.90;;;;;;4988201;28;19944;-69
2022/11/17 01:56:14;;;;;;;;;;;8.30;99.90;;;;;;4989963;28;19922;-69
2022/11/17 01:58:42;;;;;;;;;;;8.30;99.90;;;;;;4989759;28;19925;-68
2022/11/17 02:01:08;;;;;;;;;;;8.30;99.90;;;;;;4990909;28;19925;-69
2022/11/17 02:03:34;;;;;;;;;;;8.30;99.90;;;;;;4990347;28;19928;-68
2022/11/17 02:06:02;;;;;;;;;;;8.30;99.90;;;;;;4988592;28;20011;-68
2022/11/17 02:08:29;;;;;;;;;;;8.30;99.90;;;;;;4989594;28;20015;-68
2022/11/17 02:10:54;;;;;;;;;;;8.30;99.90;;;;;;4990167;28;19934;-69
2022/11/17 02:13:21;;;;;;;;;;;8.20;99.90;;;;;;4991273;28;19922;-69
2022/11/17 02:15:46;;;;;;;;;;;8.30;99.90;;;;;;4988355;28;20055;-70
2022/11/17 02:18:12;;;;;;;;;;;8.10;99.90;;;;;;4990617;28;20008;-69
2022/11/17 02:20:40;;;;;;;;;;;8.10;99.90;;;;;;4989729;28;19917;-68
2022/11/17 02:23:15;;;;;;;;;;;8.00;99.90;;;;;;4991886;28;19929;-69
2022/11/17 02:25:40;;;;;;;;;;;8.00;99.90;;;;;;4988896;28;19990;-69
2022/11/17 02:28:16;;;;;;;;;;;8.00;99.90;;;;;;4989794;28;19971;-69
2022/11/17 02:31:00;;;;;;;;;;;8.00;99.90;;;;;;4991468;28;19922;-68
2022/11/17 02:33:36;;;;;;;;;;;8.00;99.90;;;;;;4986128;28;19975;-69
2022/11/17 02:36:08;;;;;;;;;;;8.00;99.90;;;;;;4986186;28;20008;-69
2022/11/17 02:38:39;;;;;;;;;;;8.00;99.90;;;;;;4989656;28;19922;-69
2022/11/17 02:41:12;;;;;;;;;;;8.00;99.90;;;;;;4989408;28;19925;-69
2022/11/17 02:46:29;;;;;;;;;;;8.00;99.90;;;;;;4986475;28;20097;-70
2022/11/17 02:48:59;;;;;;;;;;;7.90;99.90;;;;;;4987999;28;19930;-69
2022/11/17 02:51:24;;;;;;;;;;;7.90;99.90;;;;;;4986359;28;19925;-69
2022/11/17 02:53:51;;;;;;;;;;;8.00;99.90;;;;;;4990579;28;20120;-69
2022/11/17 02:56:20;;;;;;;;;;;7.90;99.90;;;;;;4988139;28;19929;-69
2022/11/17 02:58:48;;;;;;;;;;;8.00;99.90;;;;;;4989505;28;19969;-69
2022/11/17 03:01:32;;;;;;;;;;;8.10;99.90;;;;;;4989755;28;20480;-70
2022/11/17 03:04:01;;;;;;;;;;;7.90;99.90;;;;;;4984915;28;19953;-70
2022/11/17 03:06:45;;;;;;;;;;;7.90;99.90;;;;;;4989771;28;19929;-70
2022/11/17 03:09:24;;;;;;;;;;;7.90;99.90;;;;;;4987730;28;20345;-70
2022/11/17 03:11:58;;;;;;;;;;;7.90;99.90;;;;;;4984368;28;19926;-69
2022/11/17 03:14:30;;;;;;;;;;;7.90;99.90;;;;;;4986539;28;20394;-70
2022/11/17 03:17:00;;;;;;;;;;;7.90;99.90;;;;;;4988845;28;19928;-70
2022/11/17 03:19:30;;;;;;;;;;;7.90;99.90;;;;;;4988528;28;20410;-70
2022/11/17 03:21:56;;;;;;;;;;;7.90;99.90;;;;;;4989766;28;19922;-70
2022/11/17 03:24:35;;;;;;;;;;;7.80;99.90;;;;;;4988603;28;19921;-70
2022/11/17 03:27:09;;;;;;;;;;;7.80;99.90;;;;;;4988706;28;20013;-70
2022/11/17 03:29:39;;;;;;;;;;;7.80;99.90;;;;;;4989097;28;19921;-70
2022/11/17 03:32:06;;;;;;;;;;;7.80;99.90;;;;;;4988937;28;19932;-70
2022/11/17 03:34:34;;;;;;;;;;;7.80;99.90;;;;;;4988848;28;20455;-71
2022/11/17 03:37:01;;;;;;;;;;;7.80;99.90;;;;;;4990109;28;19928;-70
2022/11/17 03:39:30;;;;;;;;;;;7.80;99.90;;;;;;4991976;28;19921;-70
2022/11/17 03:41:57;;;;;;;;;;;7.70;99.90;;;;;;4992622;28;19918;-70
2022/11/17 03:44:25;;;;;;;;;;;7.70;99.90;;;;;;4990503;28;19926;-71
2022/11/17 03:46:58;;;;;;;;;;;7.70;99.90;;;;;;4993988;28;19972;-71
2022/11/17 03:49:26;;;;;;;;;;;7.70;99.90;;;;;;4992097;28;19929;-70
2022/11/17 03:51:52;;;;;;;;;;;7.70;99.90;;;;;;4996860;28;19935;-71
2022/11/17 03:54:17;;;;;;;;;;;8.00;99.90;;;;;;4997602;28;20380;-69
2022/11/17 03:56:49;;;;;;;;;;;7.70;99.90;;;;;;4999342;28;19922;-69
2022/11/17 03:59:26;;;;;;;;;;;7.70;99.90;;;;;;4989655;28;19926;-70
2022/11/17 04:01:52;;;;;;;;;;;7.70;99.90;;;;;;4989993;28;20017;-70
2022/11/17 04:04:18;;;;;;;;;;;7.70;99.90;;;;;;4991305;28;20078;-70
2022/11/17 04:06:44;;;;;;;;;;;7.80;99.90;;;;;;4991458;28;19932;-70
2022/11/17 04:09:10;;;;;;;;;;;7.80;99.90;;;;;;4988393;28;19922;-70
2022/11/17 04:17:03;;;;;;;;;;;7.80;99.90;;;;;;4992146;28;19929;-70
2022/11/17 04:19:29;;;;;;;;;;;7.80;99.90;;;;;;4991616;28;19922;-70
2022/11/17 04:21:57;;;;;;;;;;;7.70;99.90;;;;;;4992060;28;20407;-71
2022/11/17 04:24:23;;;;;;;;;;;7.70;99.90;;;;;;4992814;28;20434;-70
2022/11/17 04:29:33;;;;;;;;;;;7.80;99.90;;;;;;4992095;28;19922;-72
2022/11/17 04:31:59;;;;;;;;;;;7.80;99.90;;;;;;4991980;28;19921;-70
2022/11/17 04:34:24;;;;;;;;;;;7.80;99.90;;;;;;4992532;28;19948;-70
2022/11/17 04:36:53;;;;;;;;;;;7.80;99.90;;;;;;4991449;28;20018;-70
2022/11/17 04:39:18;;;;;;;;;;;8.40;99.90;;;;;;4993666;28;19968;-69
2022/11/17 04:41:53;;;;;;;;;;;8.00;99.90;;;;;;4990713;28;20412;-71
2022/11/17 04:44:25;;;;;;;;;;;7.80;99.90;;;;;;4992016;28;20020;-69
2022/11/17 04:46:51;;;;;;;;;;;7.80;99.90;;;;;;4991211;28;19922;-71
2022/11/17 04:49:18;;;;;;;;;;;7.80;99.90;;;;;;4990226;28;19921;-69
2022/11/17 04:51:44;;;;;;;;;;;7.80;99.90;;;;;;4991422;28;19925;-69
2022/11/17 04:54:11;;;;;;;;;;;8.00;99.90;;;;;;4990763;28;19957;-70
2022/11/17 04:56:36;;;;;;;;;;;7.80;99.90;;;;;;4990801;28;19974;-71
2022/11/17 04:59:02;;;;;;;;;;;7.70;99.90;;;;;;4992307;28;20016;-70
2022/11/17 05:01:28;;;;;;;;;;;7.80;99.90;;;;;;4992063;28;19972;-70
2022/11/17 05:03:55;;;;;;;;;;;7.80;99.90;;;;;;4990691;28;19975;-70
2022/11/17 05:06:31;;;;;;;;;;;7.70;99.90;;;;;;4991202;28;19922;-69
2022/11/17 05:08:57;;;;;;;;;;;7.70;99.90;;;;;;4990976;28;19922;-70
2022/11/17 05:14:12;;;;;;;;;;;7.80;99.90;;;;;;4989217;28;19965;-69
2022/11/17 05:19:22;;;;;;;;;;;7.70;99.90;;;;;;4992092;28;19936;-69
2022/11/17 05:21:48;;;;;;;;;;;7.70;99.90;;;;;;4989702;28;19918;-69
2022/11/17 05:24:14;;;;;;;;;;;7.80;99.90;;;;;;4990543;28;20051;-68
2022/11/17 05:26:40;;;;;;;;;;;7.60;99.90;;;;;;4990847;28;19928;-68
2022/11/17 05:29:06;;;;;;;;;;;7.60;99.90;;;;;;4989681;28;20380;-69
2022/11/17 05:31:32;;;;;;;;;;;7.70;99.90;;;;;;4988847;28;19921;-68
2022/11/17 05:33:57;;;;;;;;;;;7.30;99.90;;;;;;4991262;28;19922;-69
2022/11/17 05:36:24;;;;;;;;;;;8.00;99.90;;;;;;4991074;28;20395;-69
2022/11/17 05:38:49;;;;;;;;;;;7.60;99.90;;;;;;4988963;28;20412;-69
2022/11/17 05:41:16;;;;;;;;;;;7.60;99.90;;;;;;4990229;28;19961;-69
2022/11/17 05:43:42;;;;;;;;;;;7.60;99.90;;;;;;4990309;28;19921;-69
2022/11/17 05:46:07;;;;;;;;;;;7.60;99.90;;;;;;4988866;28;19933;-68
2022/11/17 05:48:33;;;;;;;;;;;7.70;99.90;;;;;;4990613;28;19918;-69
2022/11/17 05:50:59;;;;;;;;;;;7.60;99.90;;;;;;4989853;28;19926;-67
2022/11/17 05:53:25;;;;;;;;;;;7.60;99.90;;;;;;4991140;28;19940;-69
2022/11/17 05:56:00;;;;;;;;;;;7.70;99.90;;;;;;4990300;28;20363;-68
2022/11/17 05:58:26;;;;;;;;;;;7.60;99.90;;;;;;4989585;28;19921;-70
2022/11/17 06:00:52;;;;;;;;;;;7.70;99.90;;;;;;4991899;28;20373;-68
2022/11/17 06:03:21;;;;;;;;;;;7.60;99.90;;;;;;4990806;28;19928;-72
2022/11/17 06:05:47;;;;;;;;;;;7.50;99.90;;;;;;4988997;28;19929;-68
2022/11/17 06:08:13;;;;;;;;;;;7.50;99.90;;;;;;4990314;28;20429;-70
2022/11/17 06:10:41;;;;;;;;;;;7.40;99.90;;;;;;4990122;28;19983;-71
2022/11/17 06:13:07;;;;;;;;;;;7.40;99.90;;;;;;4989664;28;21192;-68
2022/11/17 06:15:33;;;;;;;;;;;8.00;99.90;;;;;;4988824;28;19924;-71
2022/11/17 06:18:02;;;;;;;;;;;7.30;99.90;;;;;;4990036;28;20281;-71
2022/11/17 06:20:30;;;;;;;;;;;7.30;99.90;;;;;;4990099;28;19922;-75
2022/11/17 06:22:59;;;;;;;;;;;7.30;99.90;;;;;;4989122;28;19922;-71
2022/11/17 06:25:26;;;;;;;;;;;7.40;99.90;;;;;;4990270;28;19925;-71
2022/11/17 06:27:52;;;;;;;;;;;7.20;99.90;;;;;;4989019;28;19925;-73
2022/11/17 06:30:21;;;;;;;;;;;7.20;99.90;;;;;;4990438;28;20017;-73
2022/11/17 06:32:46;;;;;;;;;;;7.20;99.90;;;;;;4985742;28;19961;-73
2022/11/17 06:35:15;;;;;;;;;;;7.20;99.90;;;;;;4991103;28;19961;-71
2022/11/17 06:37:41;;;;;;;;;;;7.20;99.90;;;;;;4989660;28;19922;-77
2022/11/17 06:40:08;;;;;;;;;;;7.20;99.90;;;;;;4989108;28;19925;-75
2022/11/17 06:45:18;;;;;;;;;;;7.20;99.90;;;;;;4985765;28;19921;-70
2022/11/17 06:47:44;;;;;;;;;;;7.80;99.90;;;;;;4986223;28;19922;-70
2022/11/17 06:50:09;;;;;;;;;;;7.20;99.90;;;;;;4988321;28;19922;-69
2022/11/17 06:52:35;;;;;;;;;;;7.40;99.90;;;;;;4987527;28;19922;-69
2022/11/17 06:55:01;;;;;;;;;;;7.20;99.90;;;;;;4987773;28;19926;-70
2022/11/17 06:57:28;;;;;;;;;;;7.10;99.90;;;;;;4987195;28;19945;-69
2022/11/17 06:59:53;;;;;;;;;;;7.10;99.90;;;;;;4987164;28;19975;-69
2022/11/17 07:02:19;;;;;;;;;;;7.10;99.90;;;;;;4987202;28;19921;-69
2022/11/17 07:04:44;;;;;;;;;;;8.00;99.90;;;;;;4987502;28;19926;-70
2022/11/17 07:07:11;;;;;;;;;;;7.10;99.90;;;;;;4987508;28;19922;-69
2022/11/17 07:09:36;;;;;;;;;;;7.00;99.90;;;;;;4988509;28;19928;-70
2022/11/17 07:12:02;;;;;;;;;;;7.10;99.90;;;;;;4988753;28;19922;-70
2022/11/17 07:14:30;;;;;;;;;;;7.00;99.90;;;;;;4995252;28;19922;-70
2022/11/17 07:16:55;;;;;;;;;;;7.00;99.90;;;;;;4993742;28;20424;-70
2022/11/17 07:19:21;;;;;;;;;;;7.00;99.90;;;;;;4993108;28;20048;-70
2022/11/17 07:21:46;;;;;;;;;;;7.00;99.90;;;;;;4992277;28;19921;-70
2022/11/17 07:24:12;;;;;;;;;;;7.60;99.90;;;;;;4992469;28;19921;-70
2022/11/17 07:26:37;;;;;;;;;;;7.00;99.90;;;;;;4992372;28;19975;-70
2022/11/17 07:29:03;;;;;;;;;;;7.00;99.90;;;;;;4996255;28;19936;-70
2022/11/17 07:31:29;;;;;;;;;;;7.00;99.90;;;;;;4995883;28;19935;-70
2022/11/17 07:33:54;;;;;;;;;;;7.00;99.90;;;;;;4997364;28;19934;-70
2022/11/17 07:36:20;;;;;;;;;;;7.00;99.90;;;;;;4994755;28;19922;-70
2022/11/17 07:38:45;;;;;;;;;;;7.00;99.90;;;;;;4992417;28;20402;-69
2022/11/17 07:41:11;;;;;;;;;;;7.00;99.90;;;;;;4992858;28;19922;-70
2022/11/17 07:43:37;;;;;;;;;;;7.00;99.90;;;;;;4991578;28;20056;-69
2022/11/17 07:46:03;;;;;;;;;;;7.10;99.90;;;;;;4996586;28;20356;-69
2022/11/17 07:48:29;;;;;;;;;;;7.10;99.90;;;;;;4992645;28;19937;-70
2022/11/17 07:50:57;;;;;;;;;;;7.10;99.90;;;;;;4990499;28;19926;-70
2022/11/17 07:53:22;;;;;;;;;;;7.10;99.90;;;;;;4993988;28;19928;-69
2022/11/17 07:55:48;;;;;;;;;;;7.10;99.90;;;;;;5000621;28;19922;-69
2022/11/17 07:58:13;;;;;;;;;;;7.10;99.90;;;;;;4998423;28;19921;-70
2022/11/17 08:00:39;;;;;;;;;;;7.10;99.90;;;;;;4998588;28;19921;-69
2022/11/17 08:03:05;;;;;;;;;;;7.10;99.90;;;;;;4992067;28;19932;-69
2022/11/17 08:05:38;;;;;;;;;;;7.10;99.90;;;;;;4988196;28;19961;-69
2022/11/17 08:08:04;;;;;;;;;;;7.20;99.90;;;;;;4992783;28;19921;-69
2022/11/17 08:10:30;;;;;;;;;;;7.20;99.90;;;;;;4988252;28;20285;-70
2022/11/17 08:12:56;;;;;;;;;;;7.20;99.90;;;;;;4993148;28;19922;-70
2022/11/17 08:15:22;;;;;;;;;;;8.00;99.90;;;;;;4992299;28;19928;-69
2022/11/17 08:17:52;;;;;;;;;;;7.20;99.90;;;;;;4990254;28;19925;-69
2022/11/17 08:20:17;;;;;;;;;;;7.20;99.90;;;;;;4991962;28;19922;-69
2022/11/17 08:22:43;;;;;;;;;;;7.20;99.90;;;;;;4992770;28;19944;-68
2022/11/17 08:25:08;;;;;;;;;;;7.20;99.90;;;;;;4989839;28;19970;-69
2022/11/17 08:27:34;;;;;;;;;;;7.20;99.90;;;;;;4990600;28;19926;-69
2022/11/17 08:29:59;;;;;;;;;;;7.20;99.90;;;;;;4991860;28;19922;-69
2022/11/17 08:32:25;;;;;;;;;;;7.10;99.90;;;;;;4991911;28;19921;-69
2022/11/17 08:34:50;;;;;;;;;;;7.50;99.90;;;;;;4990995;28;20384;-70
2022/11/17 08:37:16;;;;;;;;;;;7.00;99.90;;;;;;4995871;28;20330;-70
2022/11/17 08:39:44;;;;;;;;;;;7.10;99.90;;;;;;4990772;28;19930;-70
2022/11/17 08:42:10;;;;;;;;;;;7.60;99.90;;;;;;4991909;28;20273;-70
2022/11/17 08:44:35;;;;;;;;;;;7.00;99.90;;;;;;4991398;28;19921;-69
2022/11/17 08:47:01;;;;;;;;;;;7.00;99.90;;;;;;4991096;28;20372;-69
2022/11/17 08:49:27;;;;;;;;;;;7.00;99.90;;;;;;4991697;28;19963;-68
2022/11/17 08:51:52;;;;;;;;;;;7.00;99.90;;;;;;4996054;28;20008;-69
2022/11/17 08:54:18;;;;;;;;;;;7.00;99.90;;;;;;4991526;28;19921;-69
2022/11/17 08:56:45;;;;;;;;;;;6.90;99.90;;;;;;4990837;28;19922;-68
2022/11/17 08:59:13;;;;;;;;;;;7.00;99.90;;;;;;4991817;28;20365;-70
2022/11/17 09:01:39;;;;;;;;;;;7.00;99.90;;;;;;4990412;28;19922;-69
2022/11/17 09:04:04;;;;;;;;;;;7.00;99.90;;;;;;4995994;28;19928;-69
2022/11/17 09:06:30;;;;;;;;;;;7.00;99.90;;;;;;4991272;28;19925;-70
2022/11/17 09:08:56;;;;;;;;;;;7.10;99.90;;;;;;4990443;28;20322;-69
2022/11/17 09:11:21;;;;;;;;;;;7.00;99.90;;;;;;4993412;28;20025;-69
2022/11/17 09:13:50;;;;;;;;;;;7.00;99.90;;;;;;4991077;28;19922;-69
2022/11/17 09:16:16;;;;;;;;;;;7.00;99.90;;;;;;4990196;28;19987;-69
2022/11/17 09:18:41;;;;;;;;;;;7.00;99.90;;;;;;4990787;28;20383;-69
2022/11/17 09:21:11;;;;;;;;;;;7.00;99.90;;;;;;4990197;28;19922;-68
2022/11/17 09:23:37;;;;;;;;;;;7.00;99.90;;;;;;4990105;28;19922;-68
2022/11/17 09:26:07;;;;;;;;;;;7.10;99.90;;;;;;4990965;28;19925;-69
2022/11/17 09:28:32;;;;;;;;;;;8.50;99.90;;;;;;4992354;28;19928;-69
2022/11/17 09:30:59;;;;;;;;;;;7.10;99.90;;;;;;4993444;28;19925;-69
2022/11/17 09:33:25;;;;;;;;;;;7.10;99.90;;;;;;4991015;28;19929;-68
2022/11/17 09:35:55;;;;;;;;;;;7.20;99.90;;;;;;4989640;28;19922;-69
2022/11/17 09:38:24;;;;;;;;;;;7.20;99.90;;;;;;4994226;28;19925;-69
2022/11/17 09:40:50;;;;;;;;;;;7.20;99.90;;;;;;4990418;28;19970;-69
2022/11/17 09:43:24;;;;;;;;;;;7.20;99.90;;;;;;4990051;28;20055;-69
2022/11/17 09:45:51;;;;;;;;;;;7.20;99.90;;;;;;4986023;28;19921;-69
2022/11/17 09:48:25;;;;;;;;;;;7.20;99.90;;;;;;4990890;28;19921;-69
2022/11/17 09:50:55;;;;;;;;;;;7.20;99.90;;;;;;4985531;28;19926;-70
2022/11/17 09:53:21;;;;;;;;;;;7.20;99.90;;;;;;4991722;28;20434;-71
2022/11/17 09:55:54;;;;;;;;;;;7.30;99.90;;;;;;4991671;28;19922;-69
2022/11/17 09:58:29;;;;;;;;;;;7.20;99.90;;;;;;4988613;28;20008;-70
2022/11/17 10:00:55;;;;;;;;;;;7.20;99.90;;;;;;4990350;28;20399;-70
2022/11/17 10:03:24;;;;;;;;;;;7.20;99.90;;;;;;4989290;28;19926;-69
2022/11/17 10:05:50;;;;;;;;;;;7.20;99.90;;;;;;4989293;28;20714;-70
2022/11/17 10:08:25;;;;;;;;;;;7.20;99.90;;;;;;4991718;28;20026;-69
2022/11/17 10:10:50;;;;;;;;;;;7.60;99.90;;;;;;4990463;28;20473;-70
2022/11/17 10:13:20;;;;;;;;;;;7.20;99.90;;;;;;4990249;28;20369;-69
2022/11/17 10:15:47;;;;;;;;;;;7.30;99.90;;;;;;4990766;28;20384;-69
2022/11/17 10:18:14;;;;;;;;;;;7.20;99.90;;;;;;4988398;28;20016;-69
2022/11/17 10:20:41;;;;;;;;;;;7.20;99.90;;;;;;4990950;28;20400;-69
2022/11/17 10:23:11;;;;;;;;;;;7.70;99.90;;;;;;4992944;28;20352;-67
2022/11/17 10:25:39;;;;;;;;;;;7.30;99.90;;;;;;4989323;28;19922;-68
2022/11/17 10:28:05;;;;;;;;;;;7.40;99.90;;;;;;4990289;28;19921;-67
2022/11/17 10:30:37;;;;;;;;;;;7.40;99.90;;;;;;4990606;28;19940;-68
2022/11/17 10:33:02;;;;;;;;;;;7.30;99.90;;;;;;4991654;28;19921;-67
2022/11/17 10:35:29;;;;;;;;;;;7.40;99.90;;;;;;4989681;28;19967;-67
2022/11/17 10:37:54;;;;;;;;;;;7.30;99.90;;;;;;4988254;28;19922;-67
2022/11/17 10:40:21;;;;;;;;;;;9.40;99.90;;;;;;4989342;28;19971;-68
2022/11/17 10:42:56;;;;;;;;;;;7.40;99.90;;;;;;4990873;28;19966;-68
2022/11/17 10:45:22;;;;;;;;;;;7.30;99.90;;;;;;4991191;28;20016;-68
2022/11/17 10:47:48;;;;;;;;;;;7.30;99.90;;;;;;4986637;28;20005;-68
2022/11/17 10:50:13;;;;;;;;;;;7.30;99.90;;;;;;4989838;28;19921;-68
2022/11/17 10:52:39;;;;;;;;;;;7.30;99.90;;;;;;4990015;28;19922;-67
2022/11/17 10:55:23;;;;;;;;;;;7.40;99.90;;;;;;4989063;28;20353;-68
2022/11/17 10:57:52;;;;;;;;;;;7.40;99.90;;;;;;4989571;28;19988;-68
2022/11/17 11:00:22;;;;;;;;;;;7.70;99.90;;;;;;4987689;28;19922;-68
2022/11/17 11:02:47;;;;;;;;;;;7.30;99.90;;;;;;4989813;28;20460;-68
2022/11/17 11:05:14;;;;;;;;;;;7.30;99.90;;;;;;4989738;28;20012;-67
2022/11/17 11:07:40;;;;;;;;;;;7.30;99.90;;;;;;4988638;28;19928;-68
2022/11/17 11:10:11;;;;;;;;;;;7.80;99.90;;;;;;4989585;28;20304;-68
2022/11/17 11:12:52;;;;;;;;;;;7.30;99.90;;;;;;4989241;28;19953;-67
2022/11/17 11:15:19;;;;;;;;;;;7.30;99.90;;;;;;4987719;28;20373;-67
2022/11/17 11:17:45;;;;;;;;;;;7.30;99.90;;;;;;4989006;28;19926;-67
2022/11/17 11:20:15;;;;;;;;;;;7.30;99.90;;;;;;4989520;28;20167;-67
2022/11/17 11:22:58;;;;;;;;;;;7.30;99.90;;;;;;4988562;28;19925;-67
2022/11/17 11:25:26;;;;;;;;;;;7.30;99.90;;;;;;4989639;28;19922;-68
2022/11/17 11:28:23;;;;;;;;;;;7.30;99.90;;;;;;4989319;28;19963;-68
2022/11/17 11:31:03;;;;;;;;;;;7.40;99.90;;;;;;4990784;28;19921;-67
2022/11/17 11:33:35;;;;;;;;;;;7.40;99.90;;;;;;4985817;28;19928;-67
2022/11/17 11:36:19;;;;;;;;;;;7.50;99.90;;;;;;4984796;28;19922;-66
2022/11/17 11:39:00;;;;;;;;;;;7.50;99.90;;;;;;4989469;28;19921;-67
2022/11/17 11:41:32;;;;;;;;;;;7.50;99.90;;;;;;4987266;28;19966;-67
2022/11/17 11:44:05;;;;;;;;;;;7.50;99.90;;;;;;4985116;28;19975;-67
2022/11/17 11:46:33;;;;;;;;;;;7.60;99.90;;;;;;4986398;28;20015;-68
2022/11/17 11:49:04;;;;;;;;;;;7.60;99.90;;;;;;4989036;28;20381;-67
2022/11/17 11:51:34;;;;;;;;;;;7.60;99.90;;;;;;4988471;28;20388;-67
2022/11/17 11:54:18;;;;;;;;;;;7.70;99.90;;;;;;4989049;28;20400;-67
2022/11/17 11:56:46;;;;;;;;;;;7.70;99.90;;;;;;4988888;28;20380;-67
2022/11/17 11:59:25;;;;;;;;;;;7.90;99.90;;;;;;4991093;28;20342;-67
2022/11/17 12:02:11;;;;;;;;;;;7.70;99.90;;;;;;4991947;28;19933;-67
2022/11/17 12:04:39;;;;;;;;;;;7.80;99.90;;;;;;4992472;28;20012;-67
2022/11/17 12:07:05;;;;;;;;;;;7.80;99.90;;;;;;4994944;28;19929;-68
2022/11/17 12:09:43;;;;;;;;;;;7.90;99.90;;;;;;4991541;28;19944;-67
2022/11/17 12:12:16;;;;;;;;;;;8.00;99.90;;;;;;4996067;28;20002;-66
2022/11/17 12:15:00;;;;;;;;;;;8.10;99.90;;;;;;4995658;28;19929;-66
2022/11/17 12:17:26;;;;;;;;;;;8.20;99.90;;;;;;4992686;28;19921;-67
2022/11/17 12:19:53;;;;;;;;;;;8.20;99.90;;;;;;4991959;28;19922;-67
2022/11/17 12:22:28;;;;;;;;;;;8.10;99.90;;;;;;4988873;28;19924;-67
2022/11/17 12:24:58;;;;;;;;;;;8.10;99.90;;;;;;4990883;28;20036;-66
2022/11/17 12:27:33;;;;;;;;;;;8.10;99.90;;;;;;4992041;28;19921;-68
2022/11/17 12:29:59;;;;;;;;;;;8.10;99.90;;;;;;4996260;28;19922;-67
2022/11/17 12:32:43;;;;;;;;;;;8.00;99.90;;;;;;4993717;28;19926;-67
2022/11/17 12:35:24;;;;;;;;;;;7.90;99.90;;;;;;4991693;28;20009;-67
2022/11/17 12:38:09;;;;;;;;;;;7.90;99.90;;;;;;4988055;28;19968;-67
2022/11/17 12:40:37;;;;;;;;;;;7.90;99.90;;;;;;4990834;28;19921;-67
2022/11/17 12:43:14;;;;;;;;;;;7.90;99.90;;;;;;4994545;28;19925;-67
2022/11/17 12:45:58;;;;;;;;;;;8.00;99.90;;;;;;4991489;28;19967;-67
2022/11/17 12:48:27;;;;;;;;;;;8.00;99.90;;;;;;4994636;28;20307;-67
2022/11/17 12:50:55;;;;;;;;;;;8.10;99.90;;;;;;4991164;28;19922;-67
2022/11/17 12:53:21;;;;;;;;;;;8.10;99.90;;;;;;4994715;28;19928;-69
2022/11/17 12:55:46;;;;;;;;;;;8.10;99.90;;;;;;4991296;28;19922;-67
2022/11/17 12:58:25;;;;;;;;;;;8.20;99.90;;;;;;4992082;28;19968;-68
2022/11/17 13:01:09;;;;;;;;;;;8.20;99.90;;;;;;4987532;28;20444;-66
2022/11/17 13:03:42;;;;;;;;;;;8.20;99.90;;;;;;4993421;28;19978;-69
2022/11/17 13:06:14;;;;;;;;;;;8.10;99.90;;;;;;4991806;28;19921;-69
2022/11/17 13:08:40;;;;;;;;;;;8.10;99.90;;;;;;4990350;28;19923;-71
2022/11/17 13:11:13;;;;;;;;;;;8.10;99.90;;;;;;4989290;28;20014;-69
2022/11/17 13:13:40;;;;;;;;;;;8.10;99.90;;;;;;4990879;28;19929;-70
2022/11/17 13:16:11;;;;;;;;;;;8.10;99.90;;;;;;4990420;28;19925;-70
2022/11/17 13:18:38;;;;;;;;;;;8.10;99.90;;;;;;4991282;28;19975;-69
2022/11/17 13:21:14;;;;;;;;;;;8.20;99.90;;;;;;4990527;28;20009;-69
2022/11/17 13:23:42;;;;;;;;;;;8.20;99.90;;;;;;4987152;28;20002;-69
2022/11/17 13:26:11;;;;;;;;;;;8.80;99.90;;;;;;4991697;28;20004;-69
2022/11/17 13:28:39;;;;;;;;;;;8.20;99.90;;;;;;4986003;28;20353;-68
2022/11/17 13:31:05;;;;;;;;;;;9.10;99.90;;;;;;4991314;28;19980;-69
2022/11/17 13:33:32;;;;;;;;;;;8.40;99.90;;;;;;4990854;28;19952;-68
2022/11/17 13:36:26;;;;;;;;;;;8.40;99.90;;;;;;4990240;28;19971;-69
2022/11/17 13:38:56;;;;;;;;;;;8.50;99.90;;;;;;4988328;28;19926;-69
2022/11/17 13:41:23;;;;;;;;;;;8.70;99.90;;;;;;4991591;28;19925;-68
2022/11/17 13:43:49;;;;;;;;;;;8.80;99.90;;;;;;4989703;28;20009;-68
2022/11/17 13:46:15;;;;;;;;;;;8.80;99.90;;;;;;4990839;28;19929;-68
2022/11/17 13:48:42;;;;;;;;;;;8.90;99.90;;;;;;4989066;28;19987;-69
2022/11/17 13:51:26;;;;;;;;;;;9.00;99.90;;;;;;4988833;28;20281;-68
2022/11/17 13:53:52;;;;;;;;;;;9.00;99.90;;;;;;4990699;28;19933;-68
2022/11/17 13:56:34;;;;;;;;;;;9.10;99.90;;;;;;4990138;28;19926;-68
2022/11/17 13:59:02;;;;;;;;;;;9.10;99.90;;;;;;4990885;28;19922;-68
2022/11/17 14:01:32;;;;;;;;;;;9.10;99.90;;;;;;4990885;28;19922;-67
2022/11/17 14:04:13;;;;;;;;;;;9.20;99.90;;;;;;4989772;28;19983;-67
2022/11/17 14:06:53;;;;;;;;;;;9.10;99.90;;;;;;4987311;28;19975;-67
2022/11/17 14:09:19;;;;;;;;;;;9.20;99.90;;;;;;4990670;28;20293;-67
2022/11/17 14:11:45;;;;;;;;;;;9.30;99.90;;;;;;4988861;28;20016;-67
2022/11/17 14:14:11;;;;;;;;;;;11.10;99.90;;;;;;4990375;28;20284;-67
2022/11/17 14:16:37;;;;;;;;;;;9.30;99.90;;;;;;4989505;28;20361;-66
2022/11/17 14:19:09;;;;;;;;;;;10.00;99.90;;;;;;4988598;28;19929;-67
2022/11/17 14:21:34;;;;;;;;;;;9.30;99.90;;;;;;4987904;28;20077;-67
2022/11/17 14:24:02;;;;;;;;;;;9.30;99.90;;;;;;4990243;28;19921;-66
2022/11/17 14:26:30;;;;;;;;;;;9.40;99.90;;;;;;4984577;28;20292;-67
2022/11/17 14:29:01;;;;;;;;;;;9.40;99.90;;;;;;4990405;28;19922;-67
2022/11/17 14:31:28;;;;;;;;;;;9.40;99.90;;;;;;4985666;28;19922;-66
2022/11/17 14:33:54;;;;;;;;;;;9.40;99.90;;;;;;4989044;28;20303;-67
2022/11/17 14:36:19;;;;;;;;;;;9.40;99.90;;;;;;4990199;28;19922;-67
2022/11/17 14:38:45;;;;;;;;;;;9.50;99.90;;;;;;4987875;28;19925;-67
2022/11/17 14:41:12;;;;;;;;;;;9.60;99.90;;;;;;4992226;28;19921;-67
2022/11/17 14:43:37;;;;;;;;;;;9.60;99.90;;;;;;4990004;28;20004;-67
2022/11/17 14:46:03;;;;;;;;;;;9.60;99.90;;;;;;4989343;28;20444;-67
2022/11/17 14:48:28;;;;;;;;;;;9.60;99.90;;;;;;4988790;28;19921;-67
2022/11/17 14:50:55;;;;;;;;;;;9.60;99.90;;;;;;4989813;28;19929;-66
2022/11/17 14:53:20;;;;;;;;;;;9.60;99.90;;;;;;4989162;28;19921;-67
2022/11/17 14:55:46;;;;;;;;;;;9.60;99.90;;;;;;4988423;28;20658;-67
2022/11/17 14:58:11;;;;;;;;;;;9.70;99.90;;;;;;4989946;28;19922;-66
2022/11/17 15:00:37;;;;;;;;;;;9.60;99.90;;;;;;4988543;28;20369;-67
2022/11/17 15:03:05;;;;;;;;;;;9.60;99.90;;;;;;4988596;28;19968;-67
2022/11/17 15:05:31;;;;;;;;;;;10.90;99.90;;;;;;4989361;28;19921;-67